createdAt,value
2022-12-01T00:00:01.925Z,101688.33
2022-12-01T00:01:08.305Z,101686.62
2022-12-01T00:02:13.677Z,101696.20
2022-12-01T00:03:17.298Z,101695.33
2022-12-01T00:04:21.836Z,101689.17
2022-12-01T00:05:25.503Z,101693.54
2022-12-01T00:06:29.125Z,101693.52
2022-12-01T00:07:31.587Z,101694.41
2022-12-01T00:08:36.124Z,101696.97
2022-12-01T00:09:58.153Z,101697.81
2022-12-01T00:11:14.031Z,101692.55
2022-12-01T00:12:17.439Z,101687.42
2022-12-01T00:13:21.934Z,101694.29
2022-12-01T00:14:25.025Z,101686.52
2022-12-01T00:15:37.561Z,101695.23
2022-12-01T00:16:41.548Z,101689.16
2022-12-01T00:17:46.536Z,101692.68
2022-12-01T00:18:52.586Z,101692.70
2022-12-01T00:19:58.668Z,101696.17
2022-12-01T00:21:04.398Z,101689.20
2022-12-01T00:22:10.233Z,101692.62
2022-12-01T00:23:12.853Z,101689.23
2022-12-01T00:24:16.267Z,101693.58
2022-12-01T00:25:21.275Z,101685.77
2022-12-01T00:26:26.128Z,101691.81
2022-12-01T00:27:29.472Z,101694.39
2022-12-01T00:28:36.166Z,101695.22
2022-12-01T00:29:41.043Z,101695.25
2022-12-01T00:30:45.277Z,101691.78
2022-12-01T00:31:49.058Z,101687.45
2022-12-01T00:32:51.541Z,101687.44
2022-12-01T00:33:55.533Z,101685.74
2022-12-01T00:34:58.773Z,101688.39
2022-12-01T00:36:04.727Z,101683.09
2022-12-01T00:37:08.226Z,101683.95
2022-12-01T00:38:10.965Z,101690.03
2022-12-01T00:39:13.698Z,101684.86
2022-12-01T00:40:17.759Z,101687.45
2022-12-01T00:41:20.509Z,101687.45
2022-12-01T00:42:23.893Z,101688.33
2022-12-01T00:43:27.386Z,101691.86
2022-12-01T00:44:30.871Z,101684.02
2022-12-01T00:45:33.641Z,101683.11
2022-12-01T00:46:37.013Z,101685.74
2022-12-01T00:47:41.536Z,101682.30
2022-12-01T00:48:45.948Z,101687.48
2022-12-01T00:49:49.443Z,101680.55
2022-12-01T00:50:53.669Z,101683.16
2022-12-01T00:51:59.432Z,101679.66
2022-12-01T00:53:04.644Z,101677.11
2022-12-01T00:54:08.545Z,101677.96
2022-12-01T00:55:12.285Z,101680.56
2022-12-01T00:56:16.090Z,101674.49
2022-12-01T00:57:18.435Z,101677.13
2022-12-01T00:58:22.937Z,101677.98
2022-12-01T00:59:27.284Z,101680.59
2022-12-01T01:00:30.767Z,101678.86
2022-12-01T01:01:35.567Z,101677.09
2022-12-01T01:02:44.521Z,101668.39
2022-12-01T01:03:48.297Z,101677.98
2022-12-01T01:04:51.697Z,101679.70
2022-12-01T01:05:55.362Z,101673.64
2022-12-01T01:06:59.164Z,101685.78
2022-12-01T01:08:02.684Z,101683.16
2022-12-01T01:09:06.122Z,101680.59
2022-12-01T01:10:10.851Z,101676.24
2022-12-01T01:11:15.388Z,101672.74
2022-12-01T01:12:18.894Z,101677.18
2022-12-01T01:13:22.296Z,101671.13
2022-12-01T01:14:26.300Z,101677.13
2022-12-01T01:15:30.199Z,101670.16
2022-12-01T01:16:37.226Z,101678.84
2022-12-01T01:17:40.530Z,101670.16
2022-12-01T01:18:44.838Z,101671.92
2022-12-01T01:19:48.942Z,101666.75
2022-12-01T01:21:04.799Z,101673.72
2022-12-01T01:22:10.333Z,101670.27
2022-12-01T01:23:13.710Z,101671.13
2022-12-01T01:24:16.525Z,101668.52
2022-12-01T01:25:19.898Z,101667.59
2022-12-01T01:26:26.005Z,101671.91
2022-12-01T01:52:28.611Z,101665.59
2022-12-01T01:53:34.573Z,101667.33
2022-12-01T01:54:40.968Z,101662.14
2022-12-01T01:55:48.335Z,101676.05
2022-12-01T01:56:54.029Z,101660.41
2022-12-01T01:57:58.012Z,101669.09
2022-12-01T01:59:01.662Z,101662.98
2022-12-01T02:00:12.285Z,101664.66
2022-12-01T02:01:20.690Z,101658.57
2022-12-01T02:02:25.150Z,101662.91
2022-12-01T02:03:31.176Z,101662.86
2022-12-01T02:04:36.406Z,101655.91
2022-12-01T02:05:40.502Z,101670.62
2022-12-01T02:06:44.388Z,101668.00
2022-12-01T02:07:49.220Z,101669.72
2022-12-01T02:08:53.329Z,101667.14
2022-12-01T02:09:57.111Z,101664.55
2022-12-01T02:11:23.845Z,101662.78
2022-12-01T02:13:02.375Z,101664.37
2022-12-01T02:14:21.666Z,101660.03
2022-12-01T02:15:41.778Z,101667.84
2022-12-01T02:16:51.615Z,101665.25
2022-12-01T02:18:25.203Z,101666.11
2022-12-01T02:20:05.587Z,101672.17
2022-12-01T02:21:17.264Z,101667.81
2022-12-01T02:22:53.874Z,101670.36
2022-12-01T02:24:22.350Z,101665.17
2022-12-01T02:26:08.610Z,101668.67
2022-12-01T02:27:28.757Z,101667.77
2022-12-01T02:28:52.382Z,101662.54
2022-12-01T02:30:07.368Z,101668.56
2022-12-01T02:31:17.464Z,101664.17
2022-12-01T02:32:26.364Z,101659.03
2022-12-01T02:33:55.663Z,101663.32
2022-12-01T02:35:21.806Z,101661.61
2022-12-01T02:36:29.745Z,101660.77
2022-12-01T02:37:44.101Z,101657.27
2022-12-01T02:38:54.239Z,101659.02
2022-12-01T02:40:16.654Z,101657.30
2022-12-01T02:41:31.364Z,101660.66
2022-12-01T02:42:52.336Z,101652.03
2022-12-01T02:44:08.335Z,101658.92
2022-12-01T02:45:15.592Z,101660.66
2022-12-01T02:46:24.572Z,101658.99
2022-12-01T02:47:28.350Z,101663.34
2022-12-01T02:48:39.578Z,101662.50
2022-12-01T02:49:50.185Z,101662.48
2022-12-01T02:50:59.756Z,101659.83
2022-12-01T02:52:07.951Z,101662.48
2022-12-01T02:53:15.508Z,101669.41
2022-12-01T02:54:19.316Z,101671.00
2022-12-01T02:55:22.723Z,101665.77
2022-12-01T02:56:26.601Z,101673.59
2022-12-01T02:57:33.251Z,101662.39
2022-12-01T02:58:36.948Z,101672.73
2022-12-01T02:59:45.618Z,101677.08
2022-12-01T03:01:05.515Z,101675.38
2022-12-01T03:02:42.537Z,101662.39
2022-12-01T03:04:04.925Z,101669.28
2022-12-01T03:05:21.693Z,101676.95
2022-12-01T03:06:31.687Z,101676.20
2022-12-01T03:07:53.508Z,101660.65
2022-12-01T03:09:32.154Z,101677.99
2022-12-01T03:10:42.387Z,101666.76
2022-12-01T03:11:49.512Z,101671.05
2022-12-01T03:13:24.177Z,101679.66
2022-12-01T03:14:43.828Z,101669.32
2022-12-01T03:16:04.913Z,101661.54
2022-12-01T03:17:10.291Z,101677.93
2022-12-01T03:18:33.494Z,101672.75
2022-12-01T03:19:41.931Z,101675.34
2022-12-01T03:20:51.752Z,101664.13
2022-12-01T03:23:24.799Z,101657.23
2022-12-01T03:24:33.542Z,101662.35
2022-12-01T03:25:40.318Z,101658.06
2022-12-01T03:26:47.718Z,101666.66
2022-12-01T03:28:20.252Z,101663.28
2022-12-01T03:29:14.074Z,101658.98
2022-12-01T03:30:17.356Z,101665.06
2022-12-01T03:31:24.754Z,101655.55
2022-12-01T03:33:56.454Z,101656.41
2022-12-01T03:35:06.850Z,101655.45
2022-12-01T03:36:15.496Z,101664.86
2022-12-01T03:37:28.575Z,101664.86
2022-12-01T03:38:36.509Z,101672.71
2022-12-01T03:39:42.957Z,101664.95
2022-12-01T03:40:49.274Z,101662.36
2022-12-01T03:41:56.800Z,101668.41
2022-12-01T03:43:09.079Z,101663.28
2022-12-01T03:44:17.597Z,101663.19
2022-12-01T03:45:25.027Z,101657.17
2022-12-01T03:47:02.250Z,101661.48
2022-12-01T03:48:06.510Z,101655.41
2022-12-01T03:49:13.609Z,101660.66
2022-12-01T03:50:20.189Z,101654.67
2022-12-01T03:51:35.499Z,101659.81
2022-12-01T03:53:11.541Z,101665.88
2022-12-01T03:54:29.964Z,101671.05
2022-12-01T03:55:38.500Z,101668.37
2022-12-01T03:56:49.160Z,101670.07
2022-12-01T03:57:58.919Z,101672.75
2022-12-01T03:59:04.538Z,101670.15
2022-12-01T04:00:13.076Z,101668.45
2022-12-01T04:01:17.043Z,101677.95
2022-12-01T04:02:24.779Z,101676.23
2022-12-01T04:03:27.593Z,101673.69
2022-12-01T04:04:31.926Z,101676.19
2022-12-01T04:05:38.361Z,101671.03
2022-12-01T04:06:50.746Z,101670.19
2022-12-01T04:07:53.420Z,101675.31
2022-12-01T04:08:57.088Z,101672.75
2022-12-01T04:10:00.568Z,101677.93
2022-12-01T04:11:07.526Z,101675.33
2022-12-01T04:12:31.100Z,101681.40
2022-12-01T04:13:34.635Z,101683.14
2022-12-01T04:14:39.193Z,101671.78
2022-12-01T04:15:45.028Z,101676.98
2022-12-01T04:16:48.276Z,101677.84
2022-12-01T04:17:51.616Z,101678.72
2022-12-01T04:20:11.868Z,101677.93
2022-12-01T04:21:16.102Z,101676.94
2022-12-01T04:22:19.928Z,101679.53
2022-12-01T04:23:41.382Z,101673.55
2022-12-01T04:24:48.127Z,101689.91
2022-12-01T04:25:55.396Z,101684.69
2022-12-01T04:27:00.564Z,101680.43
2022-12-01T04:28:04.697Z,101681.30
2022-12-01T04:29:10.849Z,101680.51
2022-12-01T04:30:14.370Z,101685.67
2022-12-01T04:31:21.432Z,101687.45
2022-12-01T04:32:25.019Z,101684.87
2022-12-01T04:33:29.960Z,101685.73
2022-12-01T04:34:33.565Z,101689.16
2022-12-01T04:35:36.421Z,101683.16
2022-12-01T04:36:40.053Z,101690.02
2022-12-01T04:37:45.326Z,101694.31
2022-12-01T04:38:48.943Z,101690.87
2022-12-01T04:41:11.823Z,101680.59
2022-12-01T04:42:15.749Z,101689.02
2022-12-01T04:43:22.264Z,101690.76
2022-12-01T04:44:30.117Z,101683.92
2022-12-01T04:45:30.966Z,101695.19
2022-12-01T04:46:33.702Z,101686.50
2022-12-01T04:47:37.193Z,101682.13
2022-12-01T04:48:41.373Z,101689.16
2022-12-01T04:49:48.040Z,101684.86
2022-12-01T04:50:51.936Z,101684.81
2022-12-01T04:51:56.515Z,101683.16
2022-12-01T04:52:59.800Z,101687.50
2022-12-01T04:54:05.169Z,101678.84
2022-12-01T04:55:12.174Z,101684.90
2022-12-01T04:56:16.833Z,101681.41
2022-12-01T04:57:20.419Z,101681.39
2022-12-01T04:58:28.099Z,101690.06
2022-12-01T04:59:31.520Z,101679.66
2022-12-01T05:00:34.308Z,101678.88
2022-12-01T05:01:38.001Z,101674.56
2022-12-01T05:02:44.919Z,101685.84
2022-12-01T05:03:51.473Z,101680.65
2022-12-01T05:04:54.895Z,101689.28
2022-12-01T05:06:08.008Z,101684.10
2022-12-01T05:07:11.833Z,101687.53
2022-12-01T05:08:16.306Z,101691.84
2022-12-01T05:09:20.541Z,101688.41
2022-12-01T05:10:26.204Z,101684.06
2022-12-01T05:11:31.641Z,101684.92
2022-12-01T05:12:35.209Z,101684.02
2022-12-01T05:13:42.193Z,101678.86
2022-12-01T05:14:46.657Z,101682.32
2022-12-01T05:15:52.075Z,101683.23
2022-12-01T05:16:56.512Z,101671.16
2022-12-01T05:17:59.885Z,101684.08
2022-12-01T05:19:24.311Z,101683.19
2022-12-01T05:20:46.101Z,101682.27
2022-12-01T05:21:53.273Z,101682.23
2022-12-01T05:23:08.246Z,101686.60
2022-12-01T05:24:06.808Z,101685.73
2022-12-01T05:25:11.892Z,101686.58
2022-12-01T05:26:19.353Z,101696.16
2022-12-01T05:27:21.709Z,101682.39
2022-12-01T05:28:26.425Z,101694.48
2022-12-01T05:29:31.328Z,101684.95
2022-12-01T05:30:34.932Z,101701.45
2022-12-01T05:31:39.247Z,101690.92
2022-12-01T05:32:43.226Z,101691.78
2022-12-01T05:33:47.696Z,101689.18
2022-12-01T05:34:52.087Z,101694.46
2022-12-01T05:35:56.648Z,101690.14
2022-12-01T10:09:56.132Z,101683.85
2022-12-01T10:11:03.860Z,101680.13
2022-12-01T10:12:18.082Z,101675.54
2022-12-01T10:13:26.357Z,101674.70
2022-12-01T10:14:33.905Z,101676.12
2022-12-01T10:15:46.944Z,101685.65
2022-12-01T10:17:05.258Z,101676.97
2022-12-01T10:18:21.151Z,101674.10
2022-12-01T10:19:43.442Z,101674.16
2022-12-01T10:21:06.608Z,101677.74
2022-12-01T10:22:16.613Z,101671.84
2022-12-01T10:23:48.952Z,101667.40
2022-12-01T10:24:55.388Z,101668.08
2022-12-01T10:26:09.853Z,101670.05
2022-12-01T10:29:05.611Z,101657.02
2022-12-01T10:30:19.105Z,101659.59
2022-12-01T10:31:38.772Z,101664.57
2022-12-01T10:32:52.810Z,101660.08
2022-12-01T10:34:13.710Z,101663.69
2022-12-01T10:35:19.640Z,101656.80
2022-12-01T10:36:25.890Z,101657.02
2022-12-01T10:37:31.398Z,101662.89
2022-12-01T10:38:37.629Z,101663.00
2022-12-01T10:39:45.032Z,101654.66
2022-12-01T10:40:50.895Z,101657.20
2022-12-01T10:42:02.491Z,101659.52
2022-12-01T10:43:14.593Z,101657.98
2022-12-01T10:44:20.060Z,101652.96
2022-12-01T10:45:30.090Z,101661.58
2022-12-01T10:46:42.261Z,101649.38
2022-12-01T10:49:19.148Z,101649.48
2022-12-01T10:50:27.919Z,101648.62
2022-12-01T10:51:33.070Z,101650.19
2022-12-01T10:52:43.161Z,101644.88
2022-12-01T10:53:46.685Z,101645.61
2022-12-01T10:54:49.155Z,101643.64
2022-12-01T10:56:06.505Z,101650.61
2022-12-01T10:57:13.942Z,101656.91
2022-12-01T10:58:22.019Z,101656.34
2022-12-01T10:59:40.600Z,101651.95
2022-12-01T11:01:03.784Z,101637.88
2022-12-01T11:01:55.185Z,101645.75
2022-12-01T11:02:59.129Z,101643.05
2022-12-01T11:05:28.048Z,101642.08
2022-12-01T11:06:32.204Z,101638.69
2022-12-01T11:07:45.495Z,101629.06
2022-12-01T11:08:56.111Z,101642.17
2022-12-01T11:10:06.809Z,101635.97
2022-12-01T11:11:29.916Z,101636.00
2022-12-01T11:12:33.945Z,101630.06
2022-12-01T11:13:37.878Z,101639.73
2022-12-01T11:14:51.028Z,101635.38
2022-12-01T11:16:03.824Z,101628.69
2022-12-01T11:17:32.107Z,101627.66
2022-12-01T11:18:38.077Z,101636.47
2022-12-01T11:19:44.462Z,101634.81
2022-12-01T11:20:49.082Z,101627.71
2022-12-01T11:21:55.787Z,101627.54
2022-12-01T11:23:22.567Z,101624.23
2022-12-01T11:24:35.776Z,101629.67
2022-12-01T11:25:40.019Z,101619.97
2022-12-01T11:26:43.521Z,101624.91
2022-12-01T11:27:54.652Z,101620.36
2022-12-01T11:29:05.059Z,101619.50
2022-12-01T11:30:11.478Z,101623.13
2022-12-01T11:31:15.203Z,101621.19
2022-12-01T11:32:28.402Z,101616.84
2022-12-01T11:33:34.668Z,101622.88
2022-12-01T11:34:39.208Z,101617.60
2022-12-01T11:35:48.167Z,101619.48
2022-12-01T11:36:54.544Z,101616.86
2022-12-01T11:39:07.258Z,101616.67
2022-12-01T12:05:07.968Z,101612.89
2022-12-01T12:06:40.458Z,101613.02
2022-12-01T12:08:03.561Z,101605.31
2022-12-01T12:09:17.198Z,101607.13
2022-12-01T12:10:26.608Z,101604.42
2022-12-01T12:11:48.570Z,101606.89
2022-12-01T12:13:07.403Z,101609.62
2022-12-01T12:14:19.427Z,101606.36
2022-12-01T12:15:39.046Z,101601.26
2022-12-01T12:16:49.563Z,101601.17
2022-12-01T12:18:34.303Z,101598.52
2022-12-01T12:21:27.248Z,101607.19
2022-12-01T12:22:50.853Z,101610.76
2022-12-01T12:24:10.864Z,101599.34
2022-12-01T12:25:28.160Z,101611.73
2022-12-01T12:26:35.310Z,101609.92
2022-12-01T12:29:45.828Z,101595.90
2022-12-01T12:30:59.393Z,101600.17
2022-12-01T12:32:21.916Z,101601.16
2022-12-01T12:33:50.649Z,101596.77
2022-12-01T12:35:20.765Z,101603.03
2022-12-01T12:36:30.939Z,101604.88
2022-12-01T12:37:48.188Z,101602.27
2022-12-01T12:39:18.545Z,101614.53
2022-12-01T12:40:30.184Z,101610.17
2022-12-01T12:41:46.118Z,101610.21
2022-12-01T12:43:28.714Z,101604.95
2022-12-01T12:45:01.403Z,101612.70
2022-12-01T12:47:37.679Z,101605.63
2022-12-01T12:49:18.530Z,101601.31
2022-12-01T12:50:05.712Z,101605.73
2022-12-01T12:51:21.544Z,101610.09
2022-12-01T12:52:44.517Z,101612.70
2022-12-01T12:54:00.299Z,101613.58
2022-12-01T12:55:16.532Z,101611.88
2022-12-01T12:56:22.221Z,101618.83
2022-12-01T12:57:29.699Z,101619.68
2022-12-01T12:58:37.038Z,101612.70
2022-12-01T12:59:52.972Z,101617.94
2022-12-01T13:01:15.516Z,101612.61
2022-12-01T13:02:28.896Z,101623.16
2022-12-01T13:03:45.196Z,101618.70
2022-12-01T13:05:03.243Z,101619.59
2022-12-01T13:07:49.863Z,101609.00
2022-12-01T13:09:15.473Z,101618.71
2022-12-01T13:10:39.576Z,101623.08
2022-12-01T13:12:01.742Z,101620.58
2022-12-01T13:13:25.923Z,101613.61
2022-12-01T13:14:47.627Z,101610.09
2022-12-01T13:15:53.311Z,101623.17
2022-12-01T13:17:01.233Z,101617.11
2022-12-01T13:18:17.296Z,101611.05
2022-12-01T13:19:34.120Z,101611.92
2022-12-01T13:20:38.025Z,101617.09
2022-12-01T13:21:46.827Z,101610.22
2022-12-01T13:22:51.079Z,101606.72
2022-12-01T13:23:55.064Z,101609.25
2022-12-01T13:24:58.907Z,101609.24
2022-12-01T13:26:05.465Z,101612.81
2022-12-01T13:27:16.117Z,101622.48
2022-12-01T13:28:22.726Z,101612.08
2022-12-01T13:29:29.117Z,101615.52
2022-12-01T13:30:32.817Z,101606.78
2022-12-01T13:31:45.416Z,101606.72
2022-12-01T13:32:51.268Z,101606.78
2022-12-01T13:35:41.199Z,101601.31
2022-12-01T13:36:51.610Z,101609.30
2022-12-01T13:37:58.052Z,101607.60
2022-12-01T13:39:09.277Z,101607.59
2022-12-01T13:40:32.027Z,101608.47
2022-12-01T13:41:41.045Z,101607.57
2022-12-01T13:42:47.563Z,101606.70
2022-12-01T13:44:15.684Z,101610.19
2022-12-01T13:45:21.164Z,101602.25
2022-12-01T13:46:34.826Z,101609.21
2022-12-01T13:47:55.828Z,101603.13
2022-12-01T13:49:01.573Z,101603.16
2022-12-01T13:50:39.052Z,101604.00
2022-12-01T13:52:20.436Z,101600.59
2022-12-01T13:53:25.774Z,101601.45
2022-12-01T13:54:30.129Z,101599.71
2022-12-01T13:55:33.053Z,101599.65
2022-12-01T13:56:49.242Z,101597.03
2022-12-01T13:58:02.739Z,101597.86
2022-12-01T13:59:09.289Z,101593.63
2022-12-01T14:00:35.925Z,101596.23
2022-12-01T14:01:44.723Z,101588.33
2022-12-01T14:03:08.487Z,101597.88
2022-12-01T14:04:19.941Z,101590.08
2022-12-01T14:05:27.953Z,101586.59
2022-12-01T14:06:45.404Z,101584.89
2022-12-01T14:07:52.844Z,101587.51
2022-12-01T14:08:59.040Z,101583.07
2022-12-01T14:10:18.174Z,101583.19
2022-12-01T14:11:28.113Z,101583.19
2022-12-01T14:12:33.976Z,101591.88
2022-12-01T14:13:56.265Z,101585.78
2022-12-01T14:15:03.228Z,101591.04
2022-12-01T14:16:06.664Z,101597.14
2022-12-01T14:17:30.173Z,101592.78
2022-12-01T14:18:42.551Z,101591.91
2022-12-01T14:19:55.006Z,101592.77
2022-12-01T14:20:59.524Z,101598.94
2022-12-01T14:22:05.711Z,101600.75
2022-12-01T14:23:17.860Z,101604.20
2022-12-01T14:24:34.086Z,101609.48
2022-12-01T14:25:38.051Z,101602.56
2022-12-01T14:26:46.889Z,101602.56
2022-12-01T14:27:56.094Z,101602.56
